createdAt,value
2019-03-15T00:01:37.884Z,1.33
2019-03-15T00:04:06.388Z,2.23
2019-03-15T00:06:34.847Z,3.63
2019-03-15T00:09:04.823Z,1.83
2019-03-15T00:11:33.339Z,1.30
2019-03-15T00:14:01.783Z,1.50
2019-03-15T00:16:30.248Z,3.47
2019-03-15T00:18:58.678Z,2.27
2019-03-15T00:21:27.117Z,1.80
2019-03-15T00:23:55.556Z,2.10
2019-03-15T00:26:23.998Z,0.87
2019-03-15T00:28:52.452Z,1.80
2019-03-15T00:31:21.863Z,3.43
2019-03-15T00:33:50.682Z,2.17
2019-03-15T00:36:19.241Z,1.37
2019-03-15T00:38:47.683Z,1.77
2019-03-15T00:41:16.139Z,1.93
2019-03-15T00:43:44.553Z,2.67
2019-03-15T00:46:13.019Z,2.00
2019-03-15T00:48:41.445Z,3.10
2019-03-15T00:51:09.910Z,2.90
2019-03-15T00:53:38.377Z,2.93
2019-03-15T00:56:07.013Z,4.03
2019-03-15T00:58:35.467Z,1.93
2019-03-15T01:01:03.907Z,3.07
2019-03-15T01:03:32.361Z,3.13
2019-03-15T01:06:00.795Z,2.93
2019-03-15T01:08:29.331Z,4.13
2019-03-15T01:10:57.760Z,1.90
2019-03-15T01:13:26.213Z,4.83
2019-03-15T01:15:54.649Z,3.47
2019-03-15T01:18:23.108Z,2.73
2019-03-15T01:20:51.567Z,3.97
2019-03-15T01:23:20.131Z,1.93
2019-03-15T01:25:48.756Z,3.87
2019-03-15T01:28:17.224Z,2.10
2019-03-15T01:30:45.664Z,3.67
2019-03-15T01:33:14.120Z,4.03
2019-03-15T01:35:42.562Z,2.47
2019-03-15T01:38:10.992Z,3.23
2019-03-15T01:40:39.430Z,2.87
2019-03-15T01:43:07.890Z,6.07
2019-03-15T01:45:36.410Z,4.00
2019-03-15T01:48:05.112Z,3.93
2019-03-15T01:50:33.635Z,4.40
2019-03-15T01:53:02.090Z,7.83
2019-03-15T01:55:30.522Z,2.53
2019-03-15T01:57:58.964Z,4.10
2019-03-15T02:00:27.414Z,2.50
2019-03-15T02:02:55.868Z,2.10
2019-03-15T02:05:24.302Z,4.87
2019-03-15T02:07:52.763Z,4.20
2019-03-15T02:10:22.216Z,1.83
2019-03-15T02:12:51.120Z,3.13
2019-03-15T02:15:19.560Z,3.97
2019-03-15T02:17:48.007Z,1.53
2019-03-15T02:20:16.455Z,2.13
2019-03-15T02:22:44.889Z,2.50
2019-03-15T02:25:13.344Z,1.87
2019-03-15T02:27:41.770Z,3.33
2019-03-15T02:30:11.155Z,4.50
2019-03-15T02:32:39.812Z,4.67
2019-03-15T02:35:08.461Z,3.70
2019-03-15T02:37:36.903Z,3.77
2019-03-15T02:40:06.560Z,2.53
2019-03-15T02:42:35.028Z,3.10
2019-03-15T02:45:03.535Z,3.00
2019-03-15T02:47:32.048Z,7.47
2019-03-15T02:50:01.306Z,3.50
2019-03-15T02:52:30.514Z,3.97
2019-03-15T02:54:59.040Z,4.63
2019-03-15T02:57:27.469Z,4.53
2019-03-15T02:59:55.928Z,3.80
2019-03-15T03:02:24.366Z,5.03
2019-03-15T03:04:52.894Z,3.07
2019-03-15T03:07:21.351Z,3.77
2019-03-15T03:09:49.878Z,3.17
2019-03-15T03:12:18.366Z,8.43
2019-03-15T03:14:46.834Z,3.50
2019-03-15T03:17:15.333Z,3.10
2019-03-15T03:19:43.927Z,3.63
2019-03-15T03:22:12.404Z,5.37
2019-03-15T03:24:40.828Z,5.37
2019-03-15T03:27:09.311Z,6.33
2019-03-15T03:29:37.752Z,4.57
2019-03-15T03:32:06.211Z,7.57
2019-03-15T03:34:34.810Z,4.50
2019-03-15T03:37:04.452Z,5.67
2019-03-15T03:39:34.360Z,3.07
2019-03-15T03:42:03.270Z,4.43
2019-03-15T03:44:31.708Z,7.23
2019-03-15T03:47:00.164Z,8.20
2019-03-15T03:49:28.601Z,4.13
2019-03-15T03:51:57.078Z,3.90
2019-03-15T03:54:25.564Z,8.03
2019-03-15T03:56:54.107Z,4.63
2019-03-15T03:59:22.602Z,5.50
2019-03-15T04:01:51.066Z,5.30
2019-03-15T04:04:19.484Z,9.17
2019-03-15T04:06:47.935Z,8.47
2019-03-15T04:09:16.371Z,6.47
2019-03-15T04:11:54.820Z,6.23
2019-03-15T04:14:14.976Z,6.53
2019-03-15T04:16:43.427Z,6.63
2019-03-15T04:19:11.925Z,6.63
2019-03-15T04:21:40.379Z,8.03
2019-03-15T04:24:08.823Z,10.13
2019-03-15T04:26:37.273Z,7.67
2019-03-15T04:29:05.719Z,5.53
2019-03-15T04:31:34.231Z,6.20
2019-03-15T04:34:02.693Z,5.63
2019-03-15T04:36:31.127Z,5.83
2019-03-15T04:38:59.574Z,6.87
2019-03-15T04:41:28.015Z,6.40
2019-03-15T04:43:56.470Z,8.37
2019-03-15T04:46:24.949Z,5.17
2019-03-15T04:48:53.411Z,9.90
2019-03-15T04:51:21.841Z,3.60
2019-03-15T04:53:50.286Z,6.73
2019-03-15T04:56:18.739Z,6.53
2019-03-15T04:58:47.188Z,7.43
2019-03-15T05:01:15.624Z,3.90
2019-03-15T05:03:44.085Z,4.73
2019-03-15T05:06:12.518Z,5.93
2019-03-15T05:08:41.040Z,5.50
2019-03-15T05:11:09.475Z,6.37
2019-03-15T05:13:37.941Z,3.87
2019-03-15T05:16:06.449Z,7.67
2019-03-15T05:18:34.966Z,4.87
2019-03-15T05:21:03.493Z,7.20
2019-03-15T05:23:32.019Z,5.17
2019-03-15T05:26:00.551Z,2.50
2019-03-15T05:28:28.994Z,6.53
2019-03-15T05:30:57.436Z,5.97
2019-03-15T05:33:25.886Z,3.97
2019-03-15T05:35:54.338Z,8.63
2019-03-15T05:38:22.798Z,11.27
2019-03-15T05:40:52.015Z,5.60
2019-03-15T05:43:20.458Z,4.07
2019-03-15T05:45:48.894Z,3.77
2019-03-15T05:48:17.361Z,9.10
2019-03-15T05:50:45.870Z,4.30
2019-03-15T05:53:14.326Z,5.77
2019-03-15T05:55:42.851Z,8.80
2019-03-15T05:58:11.307Z,8.27
2019-03-15T06:00:39.743Z,10.23
2019-03-15T06:03:08.178Z,5.87
2019-03-15T06:05:36.786Z,4.10
2019-03-15T06:08:05.298Z,3.70
2019-03-15T06:10:33.830Z,9.43
2019-03-15T06:13:02.253Z,8.07
2019-03-15T06:15:30.719Z,7.97
2019-03-15T06:17:59.228Z,3.60
2019-03-15T06:20:27.661Z,5.30
2019-03-15T06:22:56.103Z,7.70
2019-03-15T06:25:24.563Z,4.50
2019-03-15T06:27:53.069Z,6.93
2019-03-15T06:30:21.521Z,5.47
2019-03-15T06:32:52.068Z,6.40
2019-03-15T06:35:20.599Z,5.23
2019-03-15T06:37:49.100Z,7.67
2019-03-15T06:40:17.547Z,8.50
2019-03-15T06:42:45.983Z,7.33
2019-03-15T06:45:15.067Z,8.67
2019-03-15T06:47:43.571Z,8.17
2019-03-15T06:50:12.129Z,10.43
2019-03-15T06:52:40.675Z,5.50
2019-03-15T06:55:09.697Z,5.47
2019-03-15T06:57:38.316Z,6.50
2019-03-15T07:00:14.825Z,5.83
2019-03-15T07:02:43.258Z,5.30
2019-03-15T07:05:12.541Z,5.77
2019-03-15T07:07:41.165Z,4.37
2019-03-15T07:10:10.789Z,4.73
2019-03-15T07:12:40.432Z,7.63
2019-03-15T07:15:13.569Z,7.77
2019-03-15T07:17:42.046Z,7.57
2019-03-15T07:20:16.940Z,7.23
2019-03-15T07:22:45.486Z,10.53
2019-03-15T07:25:14.000Z,8.13
2019-03-15T07:27:43.086Z,6.80
2019-03-15T07:30:13.234Z,6.37
2019-03-15T07:32:41.670Z,6.00
2019-03-15T07:35:10.278Z,6.27
2019-03-15T07:37:38.707Z,7.37
2019-03-15T07:40:13.858Z,7.30
2019-03-15T07:42:42.367Z,9.30
2019-03-15T07:45:12.839Z,7.60
2019-03-15T07:47:41.332Z,7.40
2019-03-15T07:50:14.156Z,7.73
2019-03-15T07:52:42.079Z,7.20
2019-03-15T07:55:11.067Z,6.73
2019-03-15T07:57:39.535Z,4.50
2019-03-15T08:00:18.714Z,6.27
2019-03-15T08:02:47.224Z,8.67
2019-03-15T08:05:15.658Z,4.73
2019-03-15T08:07:45.545Z,8.13
2019-03-15T08:10:14.468Z,5.10
2019-03-15T08:12:42.939Z,7.17
2019-03-15T08:15:13.628Z,7.67
2019-03-15T08:17:42.099Z,8.30
2019-03-15T08:20:14.423Z,7.83
2019-03-15T08:22:42.870Z,5.87
2019-03-15T08:25:12.043Z,7.73
2019-03-15T08:27:40.634Z,8.13
2019-03-15T08:30:14.023Z,7.97
2019-03-15T08:32:43.960Z,4.43
2019-03-15T08:35:13.239Z,11.17
2019-03-15T08:37:41.754Z,7.90
2019-03-15T08:40:11.419Z,8.63
2019-03-15T08:42:39.883Z,4.37
2019-03-15T08:45:21.660Z,6.37
2019-03-15T08:47:50.107Z,6.83
2019-03-15T08:50:19.679Z,7.07
2019-03-15T08:52:48.245Z,9.60
2019-03-15T08:55:16.712Z,11.10
2019-03-15T08:57:45.158Z,9.27
2019-03-15T09:00:14.919Z,9.70
2019-03-15T09:02:43.353Z,10.97
2019-03-15T09:05:12.959Z,14.53
2019-03-15T09:07:41.482Z,11.50
2019-03-15T09:10:23.169Z,6.50
2019-03-15T09:12:46.753Z,9.53
2019-03-15T09:15:15.558Z,7.70
2019-03-15T09:17:44.009Z,11.63
2019-03-15T09:20:13.803Z,12.20
2019-03-15T09:22:42.245Z,6.40
2019-03-15T09:25:19.824Z,7.93
2019-03-15T09:27:45.684Z,7.90
2019-03-15T09:30:23.017Z,7.90
2019-03-15T09:32:47.016Z,5.70
2019-03-15T09:35:15.524Z,6.53
2019-03-15T09:37:46.948Z,9.17
2019-03-15T09:40:17.907Z,6.80
2019-03-15T09:42:46.498Z,7.93
2019-03-15T09:45:19.151Z,9.00
2019-03-15T09:47:47.688Z,6.10
2019-03-15T09:50:26.429Z,10.33
2019-03-15T09:52:46.850Z,11.27
2019-03-15T09:55:15.362Z,7.77
2019-03-15T09:57:43.789Z,7.27
2019-03-15T10:00:20.151Z,6.97
2019-03-15T10:02:48.824Z,6.33
2019-03-15T10:05:17.271Z,8.67
2019-03-15T10:07:45.959Z,6.27
2019-03-15T10:10:18.873Z,10.00
2019-03-15T10:12:47.296Z,5.03
2019-03-15T10:15:16.388Z,13.50
2019-03-15T10:17:44.997Z,7.00
2019-03-15T10:20:14.282Z,8.87
2019-03-15T10:22:42.796Z,8.43
2019-03-15T10:25:17.230Z,6.60
2019-03-15T10:27:45.747Z,6.43
2019-03-15T10:30:16.506Z,8.23
2019-03-15T10:32:45.006Z,5.90
2019-03-15T10:35:13.531Z,4.57
2019-03-15T10:37:42.147Z,7.43
2019-03-15T10:40:16.085Z,4.13
2019-03-15T10:42:44.526Z,6.83
2019-03-15T10:45:12.979Z,5.63
2019-03-15T10:47:42.557Z,6.17
2019-03-15T10:50:20.353Z,3.87
2019-03-15T10:52:48.804Z,9.10
2019-03-15T10:55:20.582Z,5.37
2019-03-15T10:57:47.537Z,4.60
2019-03-15T11:00:19.784Z,6.93
2019-03-15T11:02:48.427Z,5.17
2019-03-15T11:05:16.939Z,5.80
2019-03-15T11:07:45.382Z,4.00
2019-03-15T11:10:14.287Z,5.10
2019-03-15T11:12:42.801Z,2.20
2019-03-15T11:15:15.055Z,4.03
2019-03-15T11:17:43.561Z,3.17
2019-03-15T11:20:12.728Z,3.80
2019-03-15T11:22:41.155Z,4.27
2019-03-15T11:25:10.695Z,2.63
2019-03-15T11:27:39.205Z,3.63
2019-03-15T11:30:14.386Z,2.73
2019-03-15T11:32:42.886Z,2.47
2019-03-15T11:35:11.972Z,3.10
2019-03-15T11:37:40.413Z,2.10
2019-03-15T11:40:14.240Z,1.63
2019-03-15T11:42:43.077Z,1.50
2019-03-15T11:45:12.456Z,2.10
2019-03-15T11:48:01.368Z,1.97
2019-03-15T11:50:13.158Z,2.07
2019-03-15T11:52:41.608Z,1.10
2019-03-15T11:55:10.290Z,1.77
2019-03-15T11:57:38.797Z,1.23
2019-03-15T12:00:12.436Z,1.47
2019-03-15T12:02:40.878Z,2.03
2019-03-15T12:05:09.553Z,1.63
2019-03-15T12:07:38.253Z,3.53
2019-03-15T12:10:14.538Z,2.23
2019-03-15T12:12:42.995Z,1.70
2019-03-15T12:15:12.671Z,2.10
2019-03-15T12:17:41.121Z,2.57
2019-03-15T12:20:10.895Z,1.60
2019-03-15T12:22:39.347Z,4.03
2019-03-15T12:25:11.341Z,1.73
2019-03-15T12:27:39.777Z,1.63
2019-03-15T12:30:15.372Z,1.77
2019-03-15T12:32:43.820Z,2.23
2019-03-15T12:35:15.705Z,3.33
2019-03-15T12:37:44.317Z,2.33
2019-03-15T12:40:15.826Z,2.70
2019-03-15T12:42:44.293Z,1.40
2019-03-15T12:45:13.731Z,3.10
2019-03-15T12:47:42.182Z,1.83
2019-03-15T12:50:14.382Z,2.13
2019-03-15T12:52:47.619Z,1.70
2019-03-15T12:55:13.897Z,3.40
2019-03-15T12:57:42.424Z,1.20
2019-03-15T13:00:13.930Z,1.53
2019-03-15T13:02:42.459Z,1.40
2019-03-15T13:05:10.958Z,1.57
2019-03-15T13:07:39.423Z,2.03
2019-03-15T13:10:13.244Z,2.03
2019-03-15T13:12:41.691Z,2.10
2019-03-15T13:15:14.826Z,1.80
2019-03-15T13:17:43.351Z,2.27
2019-03-15T13:20:18.560Z,2.43
2019-03-15T13:22:47.004Z,2.00
2019-03-15T13:25:15.443Z,1.80
2019-03-15T13:27:43.898Z,1.53
2019-03-15T13:30:14.362Z,1.33
2019-03-15T13:32:42.862Z,1.30
2019-03-15T13:35:11.555Z,1.43
2019-03-15T13:37:42.900Z,1.93
2019-03-15T13:40:12.356Z,1.27
2019-03-15T13:42:40.836Z,1.63
2019-03-15T13:45:11.165Z,1.17
2019-03-15T13:47:39.586Z,1.93
2019-03-15T13:50:13.677Z,2.30
2019-03-15T13:52:42.110Z,1.30
2019-03-15T13:55:10.785Z,1.07
2019-03-15T13:57:39.228Z,1.00
2019-03-15T14:00:15.285Z,0.83
2019-03-15T14:02:43.717Z,0.97
2019-03-15T14:05:12.260Z,0.70
2019-03-15T14:07:40.805Z,1.13
2019-03-15T14:10:13.802Z,0.70
2019-03-15T14:12:42.379Z,0.90
2019-03-15T14:15:13.447Z,0.50
2019-03-15T14:17:41.879Z,2.93
2019-03-15T14:20:11.590Z,1.47
2019-03-15T14:22:40.096Z,1.03
2019-03-15T14:25:13.509Z,1.53
2019-03-15T14:27:41.963Z,1.63
2019-03-15T14:30:12.328Z,0.60
2019-03-15T14:32:40.759Z,0.70
2019-03-15T14:35:10.469Z,0.70
2019-03-15T14:37:38.970Z,0.43
2019-03-15T14:40:09.410Z,0.60
2019-03-15T14:42:37.916Z,0.77
2019-03-15T14:45:11.016Z,0.60
2019-03-15T14:47:39.522Z,1.00
2019-03-15T14:50:15.361Z,0.80
2019-03-15T14:52:43.796Z,0.60
2019-03-15T14:55:16.480Z,0.80
2019-03-15T14:57:52.515Z,1.17
2019-03-15T15:00:17.478Z,1.00
2019-03-15T15:02:45.950Z,2.10
2019-03-15T15:05:14.454Z,0.80
2019-03-15T15:07:43.055Z,0.60
2019-03-15T15:10:12.844Z,1.13
2019-03-15T15:12:41.294Z,0.87
2019-03-15T15:15:12.450Z,0.87
2019-03-15T15:17:40.977Z,1.07
2019-03-15T15:20:10.840Z,1.00
2019-03-15T15:22:39.341Z,1.10
2019-03-15T15:25:12.091Z,1.53
2019-03-15T15:27:40.541Z,0.80
2019-03-15T15:30:11.591Z,0.80
2019-03-15T15:32:40.046Z,0.90
2019-03-15T15:35:10.385Z,1.17
2019-03-15T15:37:38.990Z,0.70
2019-03-15T15:40:12.410Z,0.60
2019-03-15T15:42:40.948Z,0.80
2019-03-15T15:45:10.934Z,0.73
2019-03-15T15:47:39.399Z,0.80
2019-03-15T15:50:10.044Z,1.93
2019-03-15T15:52:38.516Z,0.90
2019-03-15T15:55:08.891Z,2.93
2019-03-15T15:57:37.353Z,0.93
2019-03-15T16:00:08.936Z,0.70
2019-03-15T16:02:37.403Z,0.70
2019-03-15T16:05:08.700Z,0.80
2019-03-15T16:07:36.893Z,0.97
2019-03-15T16:10:08.854Z,1.77
2019-03-15T16:12:37.391Z,3.33
2019-03-15T16:15:11.328Z,1.20
2019-03-15T16:17:39.913Z,1.03
2019-03-15T16:20:09.896Z,1.63
2019-03-15T16:22:38.438Z,1.27
2019-03-15T16:25:09.498Z,1.47
2019-03-15T16:27:37.963Z,1.00
2019-03-15T16:30:16.714Z,1.53
2019-03-15T16:32:45.286Z,3.83
2019-03-15T16:35:14.345Z,1.30
2019-03-15T16:37:42.868Z,1.43
2019-03-15T16:40:14.402Z,1.33
2019-03-15T16:42:42.853Z,0.80
2019-03-15T16:45:16.474Z,1.23
2019-03-15T16:47:44.939Z,2.13
2019-03-15T16:50:13.808Z,1.27
2019-03-15T16:52:42.253Z,1.33
2019-03-15T16:55:13.545Z,1.10
2019-03-15T16:57:41.994Z,0.97
2019-03-15T17:00:14.432Z,0.70
2019-03-15T17:02:43.018Z,1.87
2019-03-15T17:05:12.462Z,0.73
2019-03-15T17:07:41.050Z,0.80
2019-03-15T17:10:11.823Z,1.43
2019-03-15T17:12:40.348Z,0.60
2019-03-15T17:15:12.093Z,0.90
2019-03-15T17:17:42.840Z,21.13
2019-03-15T17:20:12.027Z,3.00
2019-03-15T17:22:40.487Z,1.10
2019-03-15T17:25:10.777Z,1.30
2019-03-15T17:27:39.372Z,1.10
2019-03-15T17:30:17.790Z,3.07
2019-03-15T17:32:46.243Z,2.63
2019-03-15T17:35:16.907Z,4.23
2019-03-15T17:37:45.351Z,1.67
2019-03-15T17:40:16.895Z,2.63
2019-03-15T17:42:45.460Z,4.27
2019-03-15T17:45:14.514Z,2.60
2019-03-15T17:47:43.175Z,2.57
2019-03-15T17:50:22.310Z,2.63
2019-03-15T17:52:50.743Z,2.37
2019-03-15T17:55:19.299Z,1.47
2019-03-15T17:57:47.803Z,3.90
2019-03-15T18:00:22.916Z,2.13
2019-03-15T18:02:51.348Z,1.87
2019-03-15T18:05:19.896Z,3.20
2019-03-15T18:07:48.349Z,3.30
2019-03-15T18:10:16.793Z,3.23
2019-03-15T18:12:45.324Z,4.83
2019-03-15T18:15:13.841Z,2.77
2019-03-15T18:17:42.294Z,1.37
2019-03-15T18:20:10.873Z,1.80
2019-03-15T18:22:39.329Z,1.30
2019-03-15T18:25:09.206Z,2.67
2019-03-15T18:27:37.688Z,1.60
2019-03-15T18:30:09.463Z,0.90
2019-03-15T18:32:37.914Z,1.60
2019-03-15T18:35:07.386Z,1.63
2019-03-15T18:37:35.852Z,0.83
2019-03-15T18:40:10.366Z,0.97
2019-03-15T18:42:39.081Z,0.87
2019-03-15T18:45:10.363Z,1.53
2019-03-15T18:47:38.963Z,2.43
2019-03-15T18:50:15.990Z,0.70
2019-03-15T18:52:44.455Z,3.07
2019-03-15T18:55:12.970Z,0.80
2019-03-15T18:57:41.441Z,0.57
2019-03-15T19:00:15.805Z,1.10
2019-03-15T19:02:44.267Z,2.07
2019-03-15T19:05:12.873Z,0.73
2019-03-15T19:07:41.396Z,1.13
2019-03-15T19:10:11.779Z,2.03
2019-03-15T19:12:40.289Z,3.30
2019-03-15T19:15:11.368Z,1.20
2019-03-15T19:17:39.819Z,3.30
2019-03-15T19:20:10.498Z,1.00
2019-03-15T19:22:39.044Z,1.77
2019-03-15T19:25:09.383Z,2.17
2019-03-15T19:27:37.850Z,3.27
2019-03-15T19:30:09.295Z,3.30
2019-03-15T19:32:37.833Z,1.70
2019-03-15T19:35:07.877Z,3.70
2019-03-15T19:37:36.423Z,1.63
2019-03-15T19:40:08.271Z,2.30
2019-03-15T19:42:36.728Z,4.30
2019-03-15T19:45:07.972Z,5.03
2019-03-15T19:47:36.460Z,2.97
2019-03-15T19:50:08.272Z,2.53
2019-03-15T19:52:36.708Z,2.50
2019-03-15T19:55:07.998Z,3.63
2019-03-15T19:57:36.435Z,3.67
2019-03-15T20:00:08.789Z,2.60
2019-03-15T20:02:37.479Z,2.17
2019-03-15T20:05:07.354Z,2.37
2019-03-15T20:07:35.857Z,4.77
2019-03-15T20:10:07.562Z,3.73
2019-03-15T20:12:35.999Z,2.07
2019-03-15T20:15:06.095Z,4.17
2019-03-15T20:17:34.560Z,3.57
2019-03-15T20:20:03.451Z,1.93
2019-03-15T20:22:31.883Z,1.97
2019-03-15T20:25:00.387Z,3.77
2019-03-15T20:27:28.858Z,2.40
2019-03-15T20:29:57.307Z,1.40
2019-03-15T20:32:25.752Z,1.83
2019-03-15T20:34:54.285Z,3.50
2019-03-15T20:37:22.723Z,1.93
2019-03-15T20:39:51.207Z,2.03
2019-03-15T20:42:19.696Z,1.77
2019-03-15T20:44:48.161Z,2.20
2019-03-15T20:47:16.585Z,1.40
2019-03-15T20:49:45.044Z,2.13
2019-03-15T20:52:13.481Z,1.23
2019-03-15T20:54:41.924Z,2.47
2019-03-15T20:57:10.557Z,2.20
2019-03-15T20:59:39.001Z,2.67
2019-03-15T21:02:07.474Z,3.03
2019-03-15T21:04:35.910Z,2.10
2019-03-15T21:07:04.435Z,3.20
2019-03-15T21:09:32.877Z,4.43
2019-03-15T21:12:01.338Z,3.47
2019-03-15T21:14:29.782Z,3.07
2019-03-15T21:16:58.316Z,6.13
2019-03-15T21:19:26.764Z,2.00
2019-03-15T21:21:56.452Z,2.47
2019-03-15T21:24:25.052Z,2.37
2019-03-15T21:26:53.543Z,2.23
2019-03-15T21:29:21.982Z,1.50
2019-03-15T21:31:50.433Z,3.27
2019-03-15T21:34:18.948Z,1.47
2019-03-15T21:36:47.416Z,1.53
2019-03-15T21:39:15.846Z,6.20
2019-03-15T21:41:44.300Z,2.03
2019-03-15T21:44:12.754Z,2.50
2019-03-15T21:46:41.204Z,2.67
2019-03-15T21:49:09.660Z,2.53
2019-03-15T21:51:38.111Z,2.10
2019-03-15T21:54:06.624Z,3.30
2019-03-15T21:56:35.123Z,2.00
2019-03-15T21:59:03.559Z,3.17
2019-03-15T22:01:32.007Z,1.90
2019-03-15T22:04:00.459Z,1.60
2019-03-15T22:06:28.907Z,3.33
2019-03-15T22:08:57.391Z,2.73
2019-03-15T22:11:25.916Z,3.13
2019-03-15T22:13:54.383Z,3.30
2019-03-15T22:16:23.021Z,1.70
2019-03-15T22:18:51.536Z,0.90
2019-03-15T22:21:19.985Z,2.27
2019-03-15T22:23:48.445Z,1.77
2019-03-15T22:26:16.912Z,2.20
2019-03-15T22:28:45.440Z,3.00
2019-03-15T22:31:16.924Z,2.00
2019-03-15T22:33:44.098Z,2.87
2019-03-15T22:36:12.546Z,5.57
2019-03-15T22:38:41.010Z,2.60
2019-03-15T22:41:09.553Z,3.20
2019-03-15T22:43:38.055Z,5.00
2019-03-15T22:46:06.572Z,3.87
2019-03-15T22:48:35.113Z,1.57
2019-03-15T22:51:03.557Z,3.27
2019-03-15T22:53:32.076Z,2.07
2019-03-15T22:56:00.518Z,3.73
2019-03-15T22:58:28.987Z,2.50
2019-03-15T23:00:57.430Z,2.30
2019-03-15T23:03:25.890Z,1.77
2019-03-15T23:05:54.411Z,1.57
2019-03-15T23:08:22.869Z,1.27
2019-03-15T23:10:52.338Z,4.40
2019-03-15T23:13:20.798Z,1.87
2019-03-15T23:15:49.302Z,1.93
2019-03-15T23:18:17.886Z,3.93
2019-03-15T23:20:46.316Z,4.07
2019-03-15T23:23:23.728Z,1.90
2019-03-15T23:25:45.008Z,1.77
2019-03-15T23:28:13.642Z,3.30
2019-03-15T23:30:42.107Z,2.87
2019-03-15T23:33:10.546Z,3.10
2019-03-15T23:35:52.962Z,1.27
2019-03-15T23:38:09.166Z,3.30
2019-03-15T23:40:37.639Z,3.93
2019-03-15T23:43:06.077Z,2.90
2019-03-15T23:45:34.542Z,1.70
2019-03-15T23:48:03.043Z,4.27
2019-03-15T23:50:31.493Z,4.10
2019-03-15T23:52:59.994Z,3.93
2019-03-15T23:55:28.758Z,1.73
2019-03-15T23:57:57.266Z,2.97
